Time;durP1;ratioP1;P1;durP2;ratioP2;P2;SDS_P1;SDS_P2;PMS_P1;PMS_P2;Temp;Humidity;BMP_temperature;BMP_pressure;BME280_temperature;BME280_humidity;BME280_pressure;Samples;Min_cycle;Max_cycle;Signal;HPM_P1;HPM_P2
2022/05/17 00:00:24;;;;;;;79.53;52.25;;;22.00;58.10;;;;;;4913541;28;90059;-38
2022/05/17 00:02:50;;;;;;;79.28;52.25;;;21.90;58.10;;;;;;4915866;28;90676;-39
2022/05/17 00:05:15;;;;;;;79.25;52.42;;;21.90;58.20;;;;;;4919062;28;89922;-38
2022/05/17 00:07:41;;;;;;;79.75;52.20;;;21.90;58.30;;;;;;4919351;28;90266;-37
2022/05/17 00:10:07;;;;;;;80.00;52.17;;;21.90;58.20;;;;;;4920782;28;91993;-41
2022/05/17 00:12:34;;;;;;;80.13;52.25;;;21.90;58.20;;;;;;4913703;28;90138;-39
2022/05/17 00:14:59;;;;;;;80.00;52.25;;;21.90;58.20;;;;;;4924727;28;90832;-39
2022/05/17 00:17:25;;;;;;;78.95;52.40;;;21.90;58.40;;;;;;4920821;28;91296;-41
2022/05/17 00:19:51;;;;;;;79.57;52.15;;;21.80;58.30;;;;;;4926730;28;90547;-40
2022/05/17 00:22:17;;;;;;;79.32;52.33;;;21.80;58.40;;;;;;4922281;28;90316;-37
2022/05/17 00:24:43;;;;;;;79.15;52.35;;;21.80;58.40;;;;;;4925623;28;91430;-37
2022/05/17 00:27:08;;;;;;;79.32;52.35;;;21.80;58.30;;;;;;4919742;28;89703;-38
2022/05/17 00:29:34;;;;;;;79.10;52.53;;;21.80;58.40;;;;;;4921575;28;90872;-37
2022/05/17 00:32:00;;;;;;;78.85;52.15;;;21.80;58.30;;;;;;4922965;28;95442;-37
2022/05/17 00:34:27;;;;;;;79.47;52.28;;;21.80;58.30;;;;;;4928685;28;90997;-37
2022/05/17 00:36:53;;;;;;;80.93;52.10;;;21.80;58.40;;;;;;4918478;28;94666;-40
2022/05/17 00:39:19;;;;;;;78.82;52.25;;;21.80;58.40;;;;;;4920587;28;90373;-41
2022/05/17 00:41:45;;;;;;;78.60;52.40;;;21.80;58.40;;;;;;4919318;28;93722;-39
2022/05/17 00:46:55;;;;;;;79.18;52.22;;;21.80;58.40;;;;;;4925623;28;90753;-41
2022/05/17 00:49:37;;;;;;;77.90;51.90;;;21.80;58.40;;;;;;4924175;28;90344;-38
2022/05/17 00:52:09;;;;;;;80.28;52.25;;;21.80;58.40;;;;;;4927816;28;90540;-40
2022/05/17 00:54:36;;;;;;;79.50;52.13;;;21.70;58.30;;;;;;4921395;28;93733;-37
2022/05/17 00:57:04;;;;;;;78.93;52.38;;;21.70;58.30;;;;;;4927679;28;89944;-41
2022/05/17 00:59:31;;;;;;;78.93;52.15;;;21.70;58.30;;;;;;4919633;28;92242;-38
2022/05/17 01:01:57;;;;;;;79.68;52.33;;;21.70;58.30;;;;;;4927260;28;91191;-40
2022/05/17 01:04:24;;;;;;;79.22;52.13;;;21.70;58.30;;;;;;4923095;28;90683;-39
2022/05/17 01:07:00;;;;;;;78.32;52.15;;;21.70;58.30;;;;;;4928778;28;89894;-38
2022/05/17 01:09:26;;;;;;;78.90;52.15;;;21.70;58.30;;;;;;4920150;28;91341;-41
2022/05/17 01:11:52;;;;;;;80.35;52.25;;;21.70;58.40;;;;;;4917633;28;91282;-38
2022/05/17 01:17:03;;;;;;;78.45;52.00;;;21.70;58.40;;;;;;4922441;28;91357;-38
2022/05/17 01:19:28;;;;;;;78.68;52.15;;;21.70;58.40;;;;;;4909159;28;90651;-38
2022/05/17 01:21:54;;;;;;;78.70;51.92;;;21.70;58.40;;;;;;4920574;28;91899;-38
2022/05/17 01:24:20;;;;;;;79.97;52.22;;;21.70;58.40;;;;;;4920206;28;90907;-37
2022/05/17 01:26:53;;;;;;;78.97;52.25;;;21.70;58.40;;;;;;4929953;28;90176;-39
2022/05/17 01:29:18;;;;;;;78.65;52.20;;;21.70;58.40;;;;;;4923643;28;95712;-38
2022/05/17 01:31:45;;;;;;;79.63;52.13;;;21.70;58.30;;;;;;4920353;28;89780;-40
2022/05/17 01:34:11;;;;;;;79.13;52.20;;;21.60;58.30;;;;;;4919671;28;92007;-40
2022/05/17 01:36:38;;;;;;;80.28;52.15;;;21.70;58.40;;;;;;4923853;28;89606;-38
2022/05/17 01:39:05;;;;;;;78.15;52.10;;;21.60;58.30;;;;;;4919206;28;92649;-38
2022/05/17 01:41:31;;;;;;;79.13;52.25;;;21.60;58.40;;;;;;4912162;28;92395;-39
2022/05/17 01:43:56;;;;;;;78.50;52.08;;;21.60;58.40;;;;;;4919006;28;90021;-41
2022/05/17 01:46:22;;;;;;;77.90;51.85;;;21.60;58.40;;;;;;4929613;28;91180;-38
2022/05/17 01:48:49;;;;;;;78.90;52.05;;;21.60;58.30;;;;;;4922872;28;91009;-38
2022/05/17 01:51:15;;;;;;;78.95;52.20;;;21.60;58.40;;;;;;4925124;28;92428;-39
2022/05/17 01:53:41;;;;;;;78.22;52.22;;;21.60;58.30;;;;;;4914162;28;92330;-38
2022/05/17 01:56:08;;;;;;;80.05;51.95;;;21.60;58.30;;;;;;4929859;28;90422;-41
2022/05/17 01:58:34;;;;;;;78.25;52.03;;;21.60;58.20;;;;;;4925811;28;90263;-39
2022/05/17 02:01:00;;;;;;;79.25;52.15;;;21.60;58.40;;;;;;4925004;28;91667;-40
2022/05/17 02:03:26;;;;;;;78.57;51.90;;;21.60;58.40;;;;;;4918620;28;89540;-40
2022/05/17 02:05:52;;;;;;;78.90;52.22;;;21.60;58.30;;;;;;4921287;28;89997;-40
2022/05/17 02:08:18;;;;;;;78.22;51.75;;;21.60;58.20;;;;;;4927495;28;89550;-41
2022/05/17 02:10:44;;;;;;;79.65;51.83;;;21.60;58.30;;;;;;4912210;28;95559;-40
2022/05/17 02:13:10;;;;;;;78.10;51.83;;;21.60;58.40;;;;;;4915847;28;94631;-40
2022/05/17 02:15:37;;;;;;;79.47;52.05;;;21.60;58.40;;;;;;4923614;28;90251;-38
2022/05/17 02:18:02;;;;;;;78.43;52.35;;;21.60;58.20;;;;;;4932216;28;90359;-40
2022/05/17 02:20:28;;;;;;;78.68;52.08;;;21.60;58.30;;;;;;4922168;28;91738;-39
2022/05/17 02:22:54;;;;;;;78.70;52.08;;;21.60;58.20;;;;;;4931419;28;94817;-39
2022/05/17 02:25:19;;;;;;;79.13;52.28;;;21.60;58.30;;;;;;4923071;28;89972;-37
2022/05/17 02:27:45;;;;;;;78.65;52.10;;;21.60;58.30;;;;;;4928483;28;90897;-38
2022/05/17 02:30:12;;;;;;;78.13;51.92;;;21.60;58.30;;;;;;4922864;28;90507;-41
2022/05/17 02:32:38;;;;;;;78.72;52.17;;;21.60;58.30;;;;;;4924477;28;90358;-39
2022/05/17 02:35:05;;;;;;;78.45;52.13;;;21.60;58.30;;;;;;4919049;28;89912;-39
2022/05/17 02:37:31;;;;;;;79.07;52.13;;;21.60;58.20;;;;;;4924135;28;92272;-40
2022/05/17 02:39:57;;;;;;;78.13;52.03;;;21.60;58.20;;;;;;4920028;28;91293;-38
2022/05/17 02:42:22;;;;;;;79.53;52.13;;;21.60;58.20;;;;;;4917504;28;90196;-40
2022/05/17 02:44:48;;;;;;;80.28;52.45;;;21.60;58.20;;;;;;4930410;28;90059;-41
2022/05/17 02:47:14;;;;;;;78.57;51.95;;;21.50;58.20;;;;;;4933790;28;96341;-40
2022/05/17 02:49:40;;;;;;;78.82;52.13;;;21.60;58.30;;;;;;4926106;28;90365;-41
2022/05/17 02:52:07;;;;;;;78.53;52.15;;;21.50;58.20;;;;;;4924517;28;90061;-37
2022/05/17 02:54:33;;;;;;;78.10;51.85;;;21.50;58.20;;;;;;4916937;28;89084;-39
2022/05/17 02:56:59;;;;;;;78.55;52.17;;;21.60;58.30;;;;;;4921375;28;90912;-37
2022/05/17 02:59:25;;;;;;;79.85;52.08;;;21.60;58.20;;;;;;4921201;28;90663;-39
2022/05/17 03:01:51;;;;;;;78.07;51.92;;;21.50;58.30;;;;;;4920466;28;90833;-39
2022/05/17 03:04:17;;;;;;;77.90;51.92;;;21.50;58.20;;;;;;4924427;28;90508;-38
2022/05/17 03:06:44;;;;;;;79.75;52.03;;;21.50;58.20;;;;;;4925063;28;92391;-38
2022/05/17 03:09:10;;;;;;;78.35;52.03;;;21.50;58.30;;;;;;4919394;28;89882;-39
2022/05/17 03:11:38;;;;;;;78.70;52.20;;;21.50;58.20;;;;;;4916549;28;90571;-39
2022/05/17 03:14:04;;;;;;;78.65;52.17;;;21.50;58.30;;;;;;4929350;28;90395;-42
2022/05/17 03:16:31;;;;;;;78.75;52.17;;;21.50;58.20;;;;;;4923627;28;90741;-38
2022/05/17 03:18:57;;;;;;;78.95;52.20;;;21.50;58.30;;;;;;4934087;28;89874;-39
2022/05/17 03:21:23;;;;;;;79.05;52.33;;;21.50;58.20;;;;;;4925294;28;95559;-38
2022/05/17 03:23:49;;;;;;;78.50;52.08;;;21.50;58.20;;;;;;4926254;28;90799;-38
2022/05/17 03:26:14;;;;;;;81.07;52.35;;;21.50;58.10;;;;;;4916082;28;91904;-40
2022/05/17 03:28:40;;;;;;;78.88;52.13;;;21.50;58.20;;;;;;4924078;28;89646;-43
2022/05/17 03:31:07;;;;;;;78.78;52.10;;;21.50;58.20;;;;;;4917944;28;89696;-37
2022/05/17 03:33:33;;;;;;;78.07;52.13;;;21.50;58.30;;;;;;4931139;28;89644;-37
2022/05/17 03:35:59;;;;;;;80.10;52.30;;;21.50;58.20;;;;;;4925774;28;89790;-42
2022/05/17 03:38:24;;;;;;;79.00;52.00;;;21.50;58.20;;;;;;4928220;28;90333;-38
2022/05/17 03:40:52;;;;;;;79.15;52.05;;;21.50;58.30;;;;;;4919083;28;90684;-38
2022/05/17 03:43:19;;;;;;;78.07;51.85;;;21.50;58.20;;;;;;4917213;28;94907;-38
2022/05/17 03:45:45;;;;;;;79.68;52.20;;;21.50;58.20;;;;;;4938127;28;91063;-37
2022/05/17 03:48:11;;;;;;;79.03;52.35;;;21.50;58.30;;;;;;4924990;28;90263;-38
2022/05/17 03:50:37;;;;;;;79.55;52.22;;;21.50;58.20;;;;;;4930049;28;90909;-39
2022/05/17 03:53:04;;;;;;;79.30;52.22;;;21.50;58.20;;;;;;4917199;28;89801;-37
2022/05/17 03:55:29;;;;;;;79.90;52.22;;;21.50;58.20;;;;;;4912937;28;92388;-38
2022/05/17 03:57:55;;;;;;;78.38;52.03;;;21.50;58.70;;;;;;4922297;28;89919;-39
2022/05/17 04:00:21;;;;;;;80.70;52.17;;;21.50;58.20;;;;;;4926448;28;89922;-38
2022/05/17 04:02:47;;;;;;;78.60;51.95;;;21.50;58.10;;;;;;4922252;28;89956;-37
2022/05/17 04:05:13;;;;;;;78.53;51.75;;;21.50;58.20;;;;;;4920916;28;90175;-40
2022/05/17 04:07:39;;;;;;;78.57;52.03;;;21.50;58.10;;;;;;4919574;28;90088;-40
2022/05/17 04:10:10;;;;;;;78.45;52.17;;;21.40;58.10;;;;;;4926211;28;89777;-37
2022/05/17 04:12:35;;;;;;;79.20;51.97;;;21.40;58.10;;;;;;4908177;28;91643;-37
2022/05/17 04:15:03;;;;;;;79.22;52.15;;;21.50;58.20;;;;;;4919806;28;91069;-41
2022/05/17 04:17:29;;;;;;;78.00;51.85;;;21.40;58.10;;;;;;4914718;28;94195;-41
2022/05/17 04:19:55;;;;;;;80.22;52.35;;;21.50;58.20;;;;;;4923941;28;90013;-39
2022/05/17 04:22:21;;;;;;;79.53;52.03;;;21.40;58.10;;;;;;4920433;28;90054;-37
2022/05/17 04:24:47;;;;;;;79.70;52.13;;;21.40;58.10;;;;;;4925152;28;91507;-37
2022/05/17 04:27:13;;;;;;;78.97;52.17;;;21.40;58.10;;;;;;4922790;28;90998;-40
2022/05/17 04:29:38;;;;;;;78.72;52.28;;;21.40;58.10;;;;;;4926781;28;90838;-38
2022/05/17 04:32:05;;;;;;;77.97;52.22;;;21.40;58.10;;;;;;4919557;28;98727;-41
2022/05/17 04:34:31;;;;;;;80.15;52.17;;;21.40;58.00;;;;;;4924153;28;94231;-38
2022/05/17 04:36:57;;;;;;;78.32;52.00;;;21.40;58.10;;;;;;4927048;28;89941;-42
2022/05/17 04:39:24;;;;;;;78.78;52.40;;;21.50;58.10;;;;;;4916646;28;93823;-38
2022/05/17 04:41:50;;;;;;;79.45;52.25;;;21.50;58.20;;;;;;4909742;28;90093;-37
2022/05/17 04:44:16;;;;;;;77.78;51.83;;;21.50;58.00;;;;;;4924940;28;90544;-38
2022/05/17 04:46:41;;;;;;;79.05;52.08;;;21.50;58.10;;;;;;4925380;28;90057;-39
2022/05/17 04:49:07;;;;;;;79.40;52.42;;;21.50;58.00;;;;;;4923022;28;90441;-39
2022/05/17 04:51:34;;;;;;;77.93;51.78;;;21.50;58.00;;;;;;4919662;28;89472;-40
2022/05/17 04:54:00;;;;;;;78.43;52.13;;;21.50;58.00;;;;;;4920726;28;92425;-36
2022/05/17 04:56:26;;;;;;;77.90;52.05;;;21.50;58.00;;;;;;4919899;28;94458;-39
2022/05/17 04:58:52;;;;;;;79.03;52.35;;;21.50;58.00;;;;;;4927143;28;89475;-40
2022/05/17 05:01:17;;;;;;;78.68;52.25;;;21.50;57.80;;;;;;4928809;28;89885;-38
2022/05/17 05:03:43;;;;;;;78.07;52.13;;;21.50;57.80;;;;;;4929451;28;91225;-40
2022/05/17 05:06:08;;;;;;;79.05;52.28;;;21.50;57.80;;;;;;4927631;28;90467;-39
2022/05/17 05:08:34;;;;;;;78.13;52.20;;;21.50;57.70;;;;;;4923861;28;89776;-39
2022/05/17 05:11:00;;;;;;;78.22;52.22;;;21.50;57.80;;;;;;4913626;28;90274;-40
2022/05/17 05:13:25;;;;;;;80.18;52.25;;;21.50;57.60;;;;;;4914042;28;90901;-39
2022/05/17 05:15:54;;;;;;;79.22;52.25;;;21.50;57.80;;;;;;4921759;28;90843;-39
2022/05/17 05:18:20;;;;;;;79.28;52.25;;;21.50;57.90;;;;;;4920260;28;95299;-38
2022/05/17 05:20:45;;;;;;;78.72;52.08;;;21.50;57.80;;;;;;4924342;28;89399;-42
2022/05/17 05:23:11;;;;;;;79.93;52.35;;;21.50;57.70;;;;;;4918271;28;91926;-40
2022/05/17 05:25:37;;;;;;;78.43;52.13;;;21.50;57.80;;;;;;4926732;28;91156;-37
2022/05/17 05:28:05;;;;;;;79.90;52.55;;;21.60;57.80;;;;;;4920658;28;91358;-41
2022/05/17 05:30:31;;;;;;;79.55;52.22;;;21.60;57.70;;;;;;4922757;28;90025;-39
2022/05/17 05:32:57;;;;;;;78.63;52.35;;;21.60;57.70;;;;;;4922317;28;92633;-40
2022/05/17 05:35:25;;;;;;;78.45;52.33;;;21.60;57.70;;;;;;4929791;28;89844;-37
2022/05/17 05:37:51;;;;;;;79.68;52.40;;;21.60;57.80;;;;;;4929235;28;89544;-40
2022/05/17 05:40:18;;;;;;;77.88;52.13;;;21.60;57.80;;;;;;4923175;28;90211;-37
2022/05/17 05:42:44;;;;;;;79.10;52.28;;;21.60;57.70;;;;;;4926348;28;90197;-42
2022/05/17 05:45:11;;;;;;;79.75;53.05;;;21.60;57.60;;;;;;4914254;28;92846;-37
2022/05/17 05:47:37;;;;;;;80.45;52.72;;;21.70;57.60;;;;;;4929389;28;89985;-37
2022/05/17 05:50:03;;;;;;;79.70;52.72;;;21.70;57.40;;;;;;4932203;28;90217;-39
2022/05/17 05:52:29;;;;;;;79.35;52.40;;;21.70;57.30;;;;;;4927492;28;92614;-39
2022/05/17 05:54:55;;;;;;;80.40;52.55;;;21.70;57.30;;;;;;4926486;28;90859;-38
2022/05/17 05:57:21;;;;;;;79.47;52.70;;;21.80;57.20;;;;;;4930034;28;90174;-38
2022/05/17 05:59:47;;;;;;;79.85;52.72;;;21.80;57.10;;;;;;4929806;28;89915;-42
2022/05/17 06:02:12;;;;;;;80.15;52.75;;;21.80;56.90;;;;;;4927590;28;90203;-40
2022/05/17 06:04:39;;;;;;;78.82;52.33;;;21.80;56.90;;;;;;4929344;28;89579;-40
2022/05/17 06:07:06;;;;;;;80.03;52.78;;;21.80;56.90;;;;;;4932333;28;92348;-39
2022/05/17 06:09:32;;;;;;;80.97;52.80;;;21.80;56.90;;;;;;4931936;28;91270;-38
2022/05/17 06:11:57;;;;;;;79.97;53.00;;;21.80;56.90;;;;;;4927683;28;89363;-40
2022/05/17 06:14:23;;;;;;;79.60;52.80;;;21.80;56.90;;;;;;4920271;28;90194;-38
2022/05/17 06:16:51;;;;;;;80.05;52.85;;;21.80;56.80;;;;;;4934235;28;90853;-38
2022/05/17 06:19:17;;;;;;;80.38;52.92;;;21.90;56.80;;;;;;4928056;28;90410;-38
2022/05/17 06:21:43;;;;;;;80.72;53.15;;;21.90;56.70;;;;;;4933148;28;90043;-38
2022/05/17 06:24:09;;;;;;;80.43;52.90;;;21.90;56.60;;;;;;4922924;28;90364;-37
2022/05/17 06:26:35;;;;;;;81.70;52.90;;;21.90;56.50;;;;;;4921080;28;90348;-39
2022/05/17 06:29:02;;;;;;;79.78;52.85;;;21.90;56.50;;;;;;4925605;28;90076;-39
2022/05/17 06:31:28;;;;;;;81.00;52.83;;;22.00;56.40;;;;;;4932596;28;89854;-37
2022/05/17 06:33:54;;;;;;;82.47;53.25;;;22.00;56.40;;;;;;4933680;28;90354;-39
2022/05/17 06:36:19;;;;;;;79.60;53.00;;;22.00;56.40;;;;;;4930045;28;90734;-38
2022/05/17 06:38:45;;;;;;;80.95;52.88;;;22.00;56.30;;;;;;4923013;28;89590;-40
2022/05/17 06:41:11;;;;;;;81.03;52.95;;;22.10;56.30;;;;;;4926421;28;91864;-39
2022/05/17 06:43:37;;;;;;;80.80;53.20;;;22.10;56.10;;;;;;4920092;28;89833;-39
2022/05/17 06:46:03;;;;;;;79.82;52.83;;;22.20;56.00;;;;;;4927778;28;89798;-39
2022/05/17 06:48:30;;;;;;;80.65;53.33;;;22.20;55.70;;;;;;4927614;28;89877;-39
2022/05/17 06:51:05;;;;;;;80.07;52.85;;;22.20;55.70;;;;;;4932484;28;90608;-39
2022/05/17 06:53:30;;;;;;;80.93;53.10;;;22.20;55.60;;;;;;4935173;28;91569;-42
2022/05/17 06:55:57;;;;;;;80.95;53.08;;;22.20;55.50;;;;;;4929724;28;90300;-39
2022/05/17 06:58:23;;;;;;;80.82;53.15;;;22.30;55.60;;;;;;4927363;28;89292;-41
2022/05/17 07:00:49;;;;;;;79.72;52.88;;;22.30;55.60;;;;;;4934049;28;91039;-40
2022/05/17 07:03:14;;;;;;;80.40;53.00;;;22.30;55.60;;;;;;4941476;28;90273;-41
2022/05/17 07:05:40;;;;;;;81.80;53.20;;;22.30;55.60;;;;;;4933400;28;90456;-37
2022/05/17 07:08:07;;;;;;;80.70;52.80;;;22.30;55.50;;;;;;4930118;28;89998;-39
2022/05/17 07:13:17;;;;;;;81.57;53.33;;;22.40;55.50;;;;;;4922177;28;90019;-42
2022/05/17 07:15:46;;;;;;;81.38;53.00;;;22.40;55.40;;;;;;4921478;28;91461;-40
2022/05/17 07:18:15;;;;;;;81.60;53.53;;;22.40;55.30;;;;;;4921486;28;89735;-37
2022/05/17 07:20:41;;;;;;;80.95;53.20;;;22.50;55.20;;;;;;4934762;28;93073;-39
2022/05/17 07:23:07;;;;;;;81.55;53.03;;;22.60;55.10;;;;;;4932351;28;89881;-44
2022/05/17 07:25:33;;;;;;;81.30;53.28;;;22.60;55.00;;;;;;4930058;28;89660;-38
2022/05/17 07:28:00;;;;;;;80.90;53.45;;;22.60;55.00;;;;;;4927706;28;89870;-37
2022/05/17 07:30:26;;;;;;;80.20;53.20;;;22.60;54.90;;;;;;4931597;28;91828;-38
2022/05/17 07:32:52;;;;;;;81.95;53.30;;;22.70;54.90;;;;;;4933028;28;91049;-39
2022/05/17 07:35:17;;;;;;;80.82;53.50;;;22.70;54.80;;;;;;4925597;28;93741;-39
2022/05/17 07:37:43;;;;;;;80.80;53.53;;;22.70;54.70;;;;;;4931719;28;89771;-41
2022/05/17 07:40:12;;;;;;;82.15;53.55;;;22.70;54.60;;;;;;4923338;28;91071;-40
2022/05/17 07:42:39;;;;;;;82.05;53.58;;;22.70;54.50;;;;;;4926068;28;89578;-38
2022/05/17 07:45:05;;;;;;;81.63;53.45;;;22.80;54.50;;;;;;4917113;28;90755;-40
2022/05/17 07:47:30;;;;;;;81.70;53.35;;;22.80;54.50;;;;;;4930260;28;88998;-41
2022/05/17 07:49:56;;;;;;;82.20;53.47;;;22.80;54.40;;;;;;4931029;28;89464;-41
2022/05/17 07:52:22;;;;;;;81.38;53.70;;;22.80;54.30;;;;;;4929522;28;89890;-40
2022/05/17 07:54:48;;;;;;;80.45;53.33;;;22.90;54.30;;;;;;4928111;28;91488;-38
2022/05/17 07:57:13;;;;;;;81.30;53.55;;;22.90;54.20;;;;;;4933782;28;90049;-38
2022/05/17 07:59:39;;;;;;;81.80;53.40;;;22.90;54.10;;;;;;4929669;28;89665;-39
2022/05/17 08:02:06;;;;;;;81.55;53.63;;;22.90;54.10;;;;;;4936770;28;90461;-39
2022/05/17 08:04:31;;;;;;;81.50;53.53;;;22.90;54.00;;;;;;4921306;28;90505;-38
2022/05/17 08:06:58;;;;;;;81.63;53.22;;;23.00;54.10;;;;;;4923999;28;92079;-39
2022/05/17 08:09:26;;;;;;;81.45;53.28;;;23.00;54.00;;;;;;4930810;28;90839;-41
2022/05/17 08:11:52;;;;;;;82.18;53.63;;;23.00;53.90;;;;;;4929696;28;92643;-37
2022/05/17 08:14:19;;;;;;;82.53;53.75;;;23.00;53.80;;;;;;4916695;28;90737;-38
2022/05/17 08:16:44;;;;;;;82.28;53.47;;;23.10;53.70;;;;;;4921710;28;91690;-42
2022/05/17 08:19:11;;;;;;;82.03;53.90;;;23.10;53.70;;;;;;4931208;28;92577;-39
2022/05/17 08:21:37;;;;;;;81.88;53.83;;;23.10;53.70;;;;;;4930823;28;91466;-37
2022/05/17 08:24:03;;;;;;;81.32;53.40;;;23.10;53.60;;;;;;4928606;28;90168;-38
2022/05/17 08:29:13;;;;;;;82.43;53.67;;;23.10;53.40;;;;;;4930493;28;90347;-40
2022/05/17 08:31:39;;;;;;;81.63;53.55;;;23.20;53.50;;;;;;4930085;28;90211;-41
2022/05/17 08:34:08;;;;;;;82.68;53.72;;;23.20;53.50;;;;;;4934554;28;91330;-39
2022/05/17 08:36:34;;;;;;;83.60;54.15;;;23.20;53.40;;;;;;4928538;28;90665;-40
2022/05/17 08:38:59;;;;;;;81.75;53.60;;;23.20;53.50;;;;;;4917807;28;90995;-39
2022/05/17 08:41:26;;;;;;;82.10;53.80;;;23.20;53.50;;;;;;4933589;28;89882;-41
2022/05/17 08:44:17;;;;;;;81.97;53.85;;;23.20;53.50;;;;;;4926601;28;92057;-38
2022/05/17 08:47:05;;;;;;;81.53;53.58;;;23.10;53.50;;;;;;4928433;28;89715;-40
2022/05/17 08:49:38;;;;;;;81.78;53.85;;;23.10;53.60;;;;;;4930652;28;89404;-39
2022/05/17 08:52:09;;;;;;;82.90;53.60;;;23.10;53.60;;;;;;4923221;28;90856;-37
2022/05/17 08:55:06;;;;;;;82.03;53.63;;;23.20;53.60;;;;;;4924177;28;92157;-37
2022/05/17 08:57:41;;;;;;;83.60;53.75;;;23.10;53.50;;;;;;4929906;28;90023;-39
2022/05/17 09:00:22;;;;;;;83.35;54.05;;;23.20;53.50;;;;;;4930792;28;90975;-38
2022/05/17 09:03:03;;;;;;;81.93;54.03;;;23.20;53.40;;;;;;4930564;28;90790;-40
2022/05/17 09:05:35;;;;;;;81.97;53.83;;;23.30;53.30;;;;;;4932331;28;89586;-40
2022/05/17 09:08:28;;;;;;;82.10;53.83;;;23.30;53.20;;;;;;4927850;28;90181;-39
2022/05/17 09:11:16;;;;;;;83.40;53.88;;;23.40;53.10;;;;;;4926696;28;91560;-40
2022/05/17 09:14:19;;;;;;;82.40;53.85;;;23.40;53.10;;;;;;4917642;28;91648;-38
2022/05/17 09:16:47;;;;;;;82.20;53.72;;;23.30;53.10;;;;;;4925047;28;90075;-37
2022/05/17 09:19:16;;;;;;;83.03;54.10;;;23.40;53.90;;;;;;4926923;28;90331;-39
2022/05/17 09:21:44;;;;;;;81.65;53.63;;;23.30;53.30;;;;;;4931029;28;90184;-37
2022/05/17 09:24:18;;;;;;;82.22;53.83;;;23.30;53.30;;;;;;4928082;28;89851;-38
2022/05/17 09:27:06;;;;;;;82.30;53.72;;;23.30;53.30;;;;;;4929593;28;91846;-40
2022/05/17 09:29:47;;;;;;;81.80;53.67;;;23.30;53.30;;;;;;4925357;28;90127;-38
2022/05/17 09:32:29;;;;;;;81.57;53.70;;;23.40;53.20;;;;;;4923681;28;89955;-37
2022/05/17 09:35:01;;;;;;;81.93;53.78;;;23.40;53.20;;;;;;4929516;28;90137;-38
2022/05/17 09:37:34;;;;;;;82.30;53.97;;;23.40;53.20;;;;;;4927510;28;91491;-38
2022/05/17 09:40:04;;;;;;;81.95;53.70;;;23.40;53.10;;;;;;4924894;28;90553;-43
2022/05/17 09:42:34;;;;;;;82.30;54.00;;;23.50;53.10;;;;;;4927397;28;90361;-40
2022/05/17 09:45:04;;;;;;;82.15;53.85;;;23.50;53.10;;;;;;4917093;28;89866;-39
2022/05/17 09:47:32;;;;;;;82.32;53.83;;;23.50;53.00;;;;;;4925888;28;93801;-41
2022/05/17 09:53:03;;;;;;;82.47;54.05;;;23.60;52.90;;;;;;4925763;28;90291;-37
2022/05/17 09:55:31;;;;;;;83.53;53.95;;;23.60;52.80;;;;;;4923379;28;90020;-38
2022/05/17 09:58:08;;;;;;;82.80;54.22;;;23.60;52.70;;;;;;4937130;28;91558;-39
2022/05/17 10:00:47;;;;;;;83.03;54.13;;;23.70;52.60;;;;;;4928143;28;90280;-38
2022/05/17 10:03:15;;;;;;;83.47;54.42;;;23.70;52.50;;;;;;4931960;28;93011;-40
2022/05/17 10:05:55;;;;;;;83.65;54.55;;;23.70;52.30;;;;;;4926932;28;90849;-38
2022/05/17 10:08:21;;;;;;;85.25;54.70;;;23.80;52.10;;;;;;4919713;28;90011;-40
2022/05/17 10:11:00;;;;;;;84.25;54.80;;;23.90;52.10;;;;;;4921349;28;89903;-41
2022/05/17 10:13:35;;;;;;;83.30;54.65;;;23.90;51.90;;;;;;4927106;28;92157;-39
2022/05/17 10:16:11;;;;;;;83.47;54.40;;;24.00;51.90;;;;;;4921184;28;96438;-39
2022/05/17 10:18:38;;;;;;;82.78;54.13;;;24.00;51.80;;;;;;4930774;28;90717;-40
2022/05/17 10:21:26;;;;;;;83.50;54.38;;;24.00;51.80;;;;;;4933809;28;92482;-40
2022/05/17 10:23:58;;;;;;;83.63;54.70;;;24.00;51.80;;;;;;4932919;28;90111;-38
2022/05/17 10:26:39;;;;;;;83.10;54.63;;;24.00;51.70;;;;;;4935447;28;90070;-38
2022/05/17 10:29:09;;;;;;;83.28;54.53;;;24.00;51.80;;;;;;4933336;28;90991;-38
2022/05/17 10:31:43;;;;;;;83.15;54.42;;;24.00;51.80;;;;;;4938548;28;91264;-40
2022/05/17 10:34:39;;;;;;;82.97;54.42;;;24.00;51.90;;;;;;4929323;28;90161;-42
2022/05/17 10:37:14;;;;;;;82.68;54.25;;;24.00;52.00;;;;;;4924290;28;95448;-38
2022/05/17 10:39:54;;;;;;;82.97;54.10;;;24.00;52.20;;;;;;4927936;28;89745;-38
2022/05/17 10:42:21;;;;;;;82.75;54.22;;;23.90;52.20;;;;;;4927805;28;90215;-38
2022/05/17 10:44:53;;;;;;;82.70;54.05;;;23.90;52.40;;;;;;4917930;28;90802;-40
2022/05/17 10:47:49;;;;;;;82.85;54.03;;;23.90;52.50;;;;;;4922641;28;90947;-39
2022/05/17 10:50:36;;;;;;;82.57;54.13;;;23.80;52.50;;;;;;4933376;28;89967;-42
2022/05/17 10:53:31;;;;;;;83.25;54.13;;;23.80;52.60;;;;;;4926232;28;89542;-39
2022/05/17 10:56:03;;;;;;;83.25;54.38;;;23.80;52.60;;;;;;4925198;28;90945;-39
2022/05/17 10:59:01;;;;;;;82.50;54.08;;;23.80;52.70;;;;;;4929126;28;91414;-38
2022/05/17 11:01:36;;;;;;;82.38;53.78;;;23.80;52.70;;;;;;4929106;28;89925;-42
2022/05/17 11:04:57;;;;;;;82.18;54.05;;;23.80;52.70;;;;;;4933423;28;90058;-39
2022/05/17 11:07:29;;;;;;;82.18;53.95;;;23.80;52.70;;;;;;4925338;28;89852;-40
2022/05/17 11:10:04;;;;;;;82.50;54.25;;;23.80;52.70;;;;;;4938649;28;90718;-42
2022/05/17 11:12:39;;;;;;;82.35;54.05;;;23.80;52.60;;;;;;4926888;28;90342;-39
2022/05/17 11:15:15;;;;;;;82.22;53.95;;;23.90;52.60;;;;;;4921325;28;89451;-42
2022/05/17 11:17:50;;;;;;;82.55;54.03;;;23.90;52.60;;;;;;4918771;28;91455;-39
2022/05/17 11:20:45;;;;;;;83.72;54.60;;;23.90;52.60;;;;;;4926168;28;90656;-39
2022/05/17 11:23:32;;;;;;;82.72;54.20;;;23.90;52.60;;;;;;4929221;28;90878;-40
2022/05/17 11:26:16;;;;;;;83.78;54.10;;;23.90;52.60;;;;;;4926759;28;89878;-42
2022/05/17 11:29:12;;;;;;;82.72;54.25;;;24.00;52.60;;;;;;4925650;28;95567;-38
2022/05/17 11:32:00;;;;;;;82.47;53.88;;;24.00;52.60;;;;;;4921535;28;90523;-39
2022/05/17 11:34:29;;;;;;;82.95;54.05;;;24.00;52.70;;;;;;4930219;28;90158;-39
2022/05/17 11:36:57;;;;;;;82.30;54.13;;;24.00;52.60;;;;;;4928861;28;90866;-42
2022/05/17 11:39:50;;;;;;;82.70;54.13;;;24.00;52.60;;;;;;4923592;28;89931;-38
2022/05/17 11:42:35;;;;;;;82.60;54.20;;;24.00;52.60;;;;;;4926119;28;89971;-37
2022/05/17 11:45:22;;;;;;;83.47;54.05;;;24.00;52.60;;;;;;4921745;28;89847;-39
2022/05/17 11:47:56;;;;;;;84.00;54.38;;;24.00;52.50;;;;;;4929431;28;90942;-40
2022/05/17 11:50:28;;;;;;;83.68;54.53;;;24.00;52.50;;;;;;4930281;28;92362;-42
2022/05/17 11:53:24;;;;;;;83.57;54.17;;;24.10;52.50;;;;;;4926174;28;90464;-38
2022/05/17 11:56:14;;;;;;;83.30;54.55;;;24.10;52.40;;;;;;4931444;28;91097;-40
2022/05/17 11:58:44;;;;;;;85.03;54.35;;;24.10;52.30;;;;;;4919035;28;90693;-38
2022/05/17 12:01:28;;;;;;;83.45;54.38;;;24.20;52.30;;;;;;4929342;28;91157;-37
2022/05/17 12:04:07;;;;;;;83.95;54.63;;;24.20;52.30;;;;;;4920710;28;90254;-41
2022/05/17 12:07:04;;;;;;;83.97;54.47;;;24.20;52.20;;;;;;4934631;28;90020;-37
2022/05/17 12:09:46;;;;;;;83.65;54.60;;;24.20;52.10;;;;;;4927498;28;88799;-39
2022/05/17 12:12:12;;;;;;;83.90;54.38;;;24.30;52.10;;;;;;4932098;28;89767;-41
2022/05/17 12:14:43;;;;;;;83.22;54.33;;;24.30;52.00;;;;;;4920388;28;90515;-38
2022/05/17 12:17:28;;;;;;;84.53;54.60;;;24.30;52.00;;;;;;4905410;28;91456;-39
2022/05/17 12:20:17;;;;;;;84.05;54.50;;;24.30;52.00;;;;;;4919845;28;92212;-39
2022/05/17 12:23:02;;;;;;;84.70;54.45;;;24.30;52.10;;;;;;4908507;28;91016;-39
2022/05/17 12:25:47;;;;;;;82.82;54.25;;;24.30;52.20;;;;;;4911060;28;91893;-39
2022/05/17 12:28:21;;;;;;;83.28;54.50;;;24.30;52.20;;;;;;4922484;28;90432;-38
2022/05/17 12:31:00;;;;;;;83.57;54.45;;;24.40;52.20;;;;;;4933367;28;89802;-39
2022/05/17 12:33:31;;;;;;;82.90;54.28;;;24.40;52.20;;;;;;4925979;28;90388;-38
2022/05/17 12:36:18;;;;;;;83.43;54.60;;;24.40;52.10;;;;;;4932340;28;89522;-42
2022/05/17 12:44:27;;;;;;;83.00;54.17;;;24.40;52.10;;;;;;4919664;28;92853;-38
2022/05/17 12:46:56;;;;;;;83.75;54.53;;;24.40;52.20;;;;;;4919907;28;89987;-38
2022/05/17 12:49:28;;;;;;;84.30;54.17;;;24.40;52.90;;;;;;4923604;28;90325;-40
2022/05/17 12:52:00;;;;;;;83.28;54.38;;;24.40;52.30;;;;;;4929039;28;90278;-38
2022/05/17 12:54:32;;;;;;;84.43;54.65;;;24.30;52.30;;;;;;4922610;28;90298;-40
2022/05/17 12:56:58;;;;;;;83.68;54.50;;;24.30;52.40;;;;;;4935623;28;89860;-40
2022/05/17 12:59:34;;;;;;;82.50;54.05;;;24.30;52.40;;;;;;4925683;28;89923;-40
2022/05/17 13:02:02;;;;;;;83.47;54.25;;;24.30;52.50;;;;;;4928435;28;89301;-41